createdAt,value
2023-03-14T00:00:00.586Z,150843.53
2023-03-14T00:02:27.631Z,150841.00
2023-03-14T00:04:56.845Z,150827.09
2023-03-14T00:07:25.006Z,150841.00
2023-03-14T00:09:51.773Z,150851.13
2023-03-14T00:12:17.626Z,150857.44
2023-03-14T00:14:44.167Z,150885.25
2023-03-14T00:17:09.957Z,150862.47
2023-03-14T00:19:35.838Z,150849.88
2023-03-14T00:22:01.757Z,150843.53
2023-03-14T00:24:27.675Z,150838.47
2023-03-14T00:26:53.489Z,150856.19
2023-03-14T00:29:19.295Z,150851.13
2023-03-14T00:31:45.208Z,150870.09
2023-03-14T00:34:11.182Z,150871.34
2023-03-14T00:36:36.973Z,150857.44
2023-03-14T00:39:02.947Z,150853.66
2023-03-14T00:41:28.838Z,150856.19
2023-03-14T00:43:54.690Z,150863.75
2023-03-14T00:46:20.574Z,150862.47
2023-03-14T00:48:46.677Z,150867.56
2023-03-14T00:51:14.248Z,150873.88
2023-03-14T00:53:40.179Z,150862.47
2023-03-14T00:56:09.126Z,150870.09
2023-03-14T00:58:35.261Z,150856.19
2023-03-14T01:01:07.415Z,150873.88
2023-03-14T01:03:33.349Z,150859.97
2023-03-14T01:06:17.654Z,150853.66
2023-03-14T01:08:44.588Z,150863.75
2023-03-14T01:11:13.250Z,150848.63
2023-03-14T01:13:39.306Z,150844.78
2023-03-14T01:16:08.448Z,150853.66
2023-03-14T01:18:37.291Z,150847.31
2023-03-14T01:21:09.477Z,150852.41
2023-03-14T01:23:35.291Z,150829.66
2023-03-14T01:26:01.116Z,150825.84
2023-03-14T01:28:26.946Z,150787.94
2023-03-14T01:30:52.758Z,150774.03
2023-03-14T01:33:18.592Z,150790.47
2023-03-14T01:35:44.407Z,150786.69
2023-03-14T01:38:10.312Z,150804.38
2023-03-14T01:40:43.348Z,150761.44
2023-03-14T01:43:18.778Z,150766.47
2023-03-14T01:46:06.280Z,150762.69
2023-03-14T01:49:04.270Z,150775.28
2023-03-14T01:51:32.947Z,150753.81
2023-03-14T01:54:27.019Z,150628.75
2023-03-14T01:57:05.149Z,150455.84
2023-03-14T01:59:33.046Z,150396.47
2023-03-14T02:01:59.591Z,150366.22
2023-03-14T02:04:30.479Z,150342.22
2023-03-14T02:07:17.563Z,150359.88
2023-03-14T02:09:44.895Z,150348.56
2023-03-14T02:12:12.244Z,150334.66
2023-03-14T02:14:38.476Z,150364.97
2023-03-14T02:17:07.734Z,150367.50
2023-03-14T02:19:52.451Z,150364.97
2023-03-14T02:22:18.358Z,150334.66
2023-03-14T02:24:54.440Z,150349.81
2023-03-14T02:27:20.824Z,150406.59
2023-03-14T02:30:17.680Z,150385.16
2023-03-14T02:32:50.594Z,150380.06
2023-03-14T02:35:22.438Z,150391.44
2023-03-14T02:37:54.008Z,150419.22
2023-03-14T02:40:20.251Z,150425.53
2023-03-14T02:42:46.282Z,150443.19
2023-03-14T02:45:12.070Z,150459.59
2023-03-14T02:47:43.068Z,150446.97
2023-03-14T02:50:13.702Z,150486.09
2023-03-14T02:52:39.485Z,150472.25
2023-03-14T02:55:06.458Z,150484.84
2023-03-14T02:57:32.220Z,150481.06
2023-03-14T03:00:03.936Z,150512.63
2023-03-14T03:02:30.017Z,150502.50
2023-03-14T03:04:55.936Z,150482.31
2023-03-14T03:07:21.832Z,150487.34
2023-03-14T03:09:47.637Z,150481.06
2023-03-14T03:12:16.089Z,150488.66
2023-03-14T03:14:41.879Z,150494.94
2023-03-14T03:17:07.722Z,150482.31
2023-03-14T03:19:34.621Z,150477.28
2023-03-14T03:22:00.473Z,150464.63
2023-03-14T03:24:26.791Z,150463.38
2023-03-14T03:26:53.616Z,150452.00
2023-03-14T03:29:19.573Z,150467.16
2023-03-14T03:31:45.793Z,150486.09
2023-03-14T03:34:12.874Z,150467.16
2023-03-14T03:36:38.802Z,150491.19
2023-03-14T03:39:04.741Z,150488.66
2023-03-14T03:41:31.326Z,150491.19
2023-03-14T03:43:57.383Z,150492.44
2023-03-14T03:46:23.789Z,150470.97
2023-03-14T03:48:55.277Z,150481.06
2023-03-14T03:51:21.087Z,150465.91
2023-03-14T03:53:46.903Z,150459.59
2023-03-14T03:56:12.769Z,150474.75
2023-03-14T03:58:39.279Z,150470.97
2023-03-14T04:01:07.168Z,150511.38
2023-03-14T04:03:33.533Z,150507.59
2023-03-14T04:06:05.649Z,150508.84
2023-03-14T04:08:31.714Z,150492.44
2023-03-14T04:10:58.769Z,150498.72
2023-03-14T04:13:25.168Z,150497.47
2023-03-14T04:15:51.639Z,150515.16
2023-03-14T04:18:17.715Z,150518.91
2023-03-14T04:20:43.634Z,150522.69
2023-03-14T04:23:09.747Z,150512.63
2023-03-14T04:25:35.648Z,150488.66
2023-03-14T04:28:01.836Z,150479.78
2023-03-14T04:30:27.924Z,150496.22
2023-03-14T04:32:53.777Z,150502.50
2023-03-14T04:35:19.614Z,150505.03
2023-03-14T04:37:49.260Z,150470.97
2023-03-14T04:40:18.284Z,150479.78
2023-03-14T04:42:44.527Z,150482.31
2023-03-14T04:45:10.408Z,150503.75
2023-03-14T04:47:36.262Z,150505.03
2023-03-14T04:50:02.481Z,150512.63
2023-03-14T04:52:28.297Z,150497.47
2023-03-14T04:54:54.146Z,150484.84
2023-03-14T04:57:20.083Z,150484.84
2023-03-14T04:59:45.916Z,150482.31
2023-03-14T05:02:11.759Z,150479.78
2023-03-14T05:04:37.556Z,150492.44
2023-03-14T05:07:03.406Z,150496.22
2023-03-14T05:09:29.210Z,150474.75
2023-03-14T05:11:55.069Z,150444.47
2023-03-14T05:14:20.856Z,150458.34
2023-03-14T05:16:46.681Z,150454.56
2023-03-14T05:19:12.603Z,150462.13
2023-03-14T05:21:38.424Z,150479.78
2023-03-14T05:24:04.543Z,150474.75
2023-03-14T05:26:30.478Z,150476.03
2023-03-14T05:28:56.291Z,150497.47
2023-03-14T05:31:22.216Z,150488.66
2023-03-14T05:33:48.072Z,150501.25
2023-03-14T05:36:13.933Z,150494.94
2023-03-14T05:38:39.744Z,150477.28
2023-03-14T05:41:05.774Z,150486.09
2023-03-14T05:43:31.565Z,150488.66
2023-03-14T05:45:57.695Z,150484.84
2023-03-14T05:48:23.716Z,150477.28
2023-03-14T05:50:55.735Z,150474.75
2023-03-14T05:53:21.625Z,150481.06
2023-03-14T05:55:47.416Z,150460.88
2023-03-14T05:58:13.238Z,150483.56
2023-03-14T06:00:39.056Z,150446.97
2023-03-14T06:03:07.217Z,150457.09
2023-03-14T06:05:33.377Z,150452.00
2023-03-14T06:07:59.238Z,150463.38
2023-03-14T06:10:25.033Z,150438.16
2023-03-14T06:12:50.864Z,150444.47
2023-03-14T06:15:16.678Z,150438.16
2023-03-14T06:17:42.508Z,150431.81
2023-03-14T06:20:09.656Z,150449.50
2023-03-14T06:22:35.483Z,150458.34
2023-03-14T06:25:01.339Z,150425.53
2023-03-14T06:27:27.452Z,150425.53
2023-03-14T06:29:53.257Z,150440.69
2023-03-14T06:32:19.694Z,150426.78
2023-03-14T06:34:45.550Z,150433.06
2023-03-14T06:37:11.716Z,150457.09
2023-03-14T06:39:38.883Z,150488.66
2023-03-14T06:42:05.037Z,150483.56
2023-03-14T06:44:30.853Z,150477.28
2023-03-14T06:46:56.681Z,150488.66
2023-03-14T06:49:22.662Z,150478.53
2023-03-14T06:51:48.676Z,150497.47
2023-03-14T06:54:14.558Z,150497.47
2023-03-14T06:56:40.435Z,150502.50
2023-03-14T06:59:06.471Z,150505.03
2023-03-14T07:01:38.306Z,150506.34
2023-03-14T07:04:04.342Z,150463.38
2023-03-14T07:06:30.342Z,150448.22
2023-03-14T07:08:56.945Z,150467.16
2023-03-14T07:11:23.139Z,150446.97
2023-03-14T07:13:49.136Z,150460.88
2023-03-14T07:16:15.222Z,150464.63
2023-03-14T07:18:41.109Z,150482.31
2023-03-14T07:21:09.423Z,150481.06
2023-03-14T07:23:35.511Z,150502.50
2023-03-14T07:26:01.910Z,150487.34
2023-03-14T07:28:28.160Z,150501.25
2023-03-14T07:30:54.716Z,150507.59
2023-03-14T07:33:20.804Z,150508.84
2023-03-14T07:35:50.418Z,150503.75
2023-03-14T07:38:17.137Z,150505.03
2023-03-14T07:40:43.030Z,150496.22
2023-03-14T07:43:08.883Z,150481.06
2023-03-14T07:45:42.465Z,150500.00
2023-03-14T07:48:08.851Z,150529.03
2023-03-14T07:50:34.646Z,150534.06
2023-03-14T07:53:00.433Z,150547.97
2023-03-14T07:55:26.225Z,150568.19
2023-03-14T07:57:52.188Z,150544.19
2023-03-14T08:00:18.526Z,150564.41
2023-03-14T08:02:44.414Z,150563.13
2023-03-14T08:05:10.912Z,150542.94
2023-03-14T08:07:36.787Z,150539.13
2023-03-14T08:10:03.336Z,150518.91
2023-03-14T08:12:29.207Z,150529.03
2023-03-14T08:14:54.988Z,150522.69
2023-03-14T08:17:20.870Z,150558.06
2023-03-14T08:19:46.620Z,150575.72
2023-03-14T08:22:12.492Z,150570.69
2023-03-14T08:24:38.356Z,150553.00
2023-03-14T08:27:04.325Z,150550.50
2023-03-14T08:29:30.134Z,150574.47
2023-03-14T08:31:56.089Z,150580.81
2023-03-14T08:34:22.010Z,150589.63
2023-03-14T08:36:47.877Z,150578.28
2023-03-14T08:39:13.943Z,150585.84
2023-03-14T08:41:44.004Z,150608.56
2023-03-14T08:44:11.780Z,150630.03
2023-03-14T08:46:37.761Z,150640.16
2023-03-14T08:49:04.021Z,150621.22
2023-03-14T08:51:30.056Z,150599.75
2023-03-14T08:53:56.087Z,150618.69
2023-03-14T08:56:22.936Z,150619.94
2023-03-14T08:58:49.633Z,150662.88
2023-03-14T09:01:15.525Z,150676.78
2023-03-14T09:03:41.504Z,150681.81
2023-03-14T09:06:10.133Z,150664.13
2023-03-14T09:08:39.222Z,150671.75
2023-03-14T09:11:08.972Z,150702.03
2023-03-14T09:13:35.822Z,150689.41
2023-03-14T09:16:01.762Z,150662.88
2023-03-14T09:18:27.630Z,150713.41
2023-03-14T09:20:53.699Z,150709.63
2023-03-14T09:23:19.556Z,150689.41
2023-03-14T09:25:45.435Z,150708.38
2023-03-14T09:28:11.286Z,150710.88
2023-03-14T09:30:37.045Z,150728.56
2023-03-14T09:33:03.058Z,150703.28
2023-03-14T09:35:29.160Z,150717.19
2023-03-14T09:37:55.210Z,150702.03
2023-03-14T09:40:23.919Z,150705.84
2023-03-14T09:42:54.460Z,150722.28
2023-03-14T09:45:26.223Z,150719.69
2023-03-14T09:47:59.543Z,150699.50
2023-03-14T09:50:30.127Z,150709.63
2023-03-14T09:53:03.593Z,150707.09
2023-03-14T09:55:29.408Z,150713.41
2023-03-14T09:58:00.342Z,150699.50
2023-03-14T10:00:29.137Z,150660.34
2023-03-14T10:03:02.659Z,150632.59
2023-03-14T10:05:31.440Z,150616.16
2023-03-14T10:07:57.325Z,150623.72
2023-03-14T10:10:25.714Z,150593.41
2023-03-14T10:12:59.807Z,150637.63
2023-03-14T10:15:31.349Z,150627.50
2023-03-14T10:17:59.972Z,150612.34
2023-03-14T10:20:38.083Z,150601.00
2023-03-14T10:23:10.227Z,150630.03
2023-03-14T10:25:38.605Z,150536.59
2023-03-14T10:28:05.499Z,150464.63
2023-03-14T10:30:31.461Z,150474.75
2023-03-14T10:32:57.509Z,150455.84
2023-03-14T10:35:23.946Z,150425.53
2023-03-14T10:37:56.153Z,150414.16
2023-03-14T10:40:28.617Z,150391.44
2023-03-14T10:42:55.661Z,150340.97
2023-03-14T10:45:32.671Z,150329.63
2023-03-14T10:48:07.534Z,150335.94
2023-03-14T10:50:35.713Z,150351.06
2023-03-14T10:53:06.616Z,150279.13
2023-03-14T10:55:50.943Z,150293.06
2023-03-14T10:58:30.917Z,150277.84
2023-03-14T11:01:06.936Z,150236.19
2023-03-14T11:03:36.041Z,150270.25
2023-03-14T11:06:12.347Z,150251.34
2023-03-14T11:08:50.121Z,150266.50
2023-03-14T11:11:28.258Z,150248.81
2023-03-14T11:14:14.522Z,150228.66
2023-03-14T11:17:01.651Z,150226.13
2023-03-14T11:19:49.056Z,150255.16
2023-03-14T11:22:43.076Z,150241.28
2023-03-14T11:25:39.990Z,150241.28
2023-03-14T11:28:22.991Z,150223.63
2023-03-14T11:31:00.686Z,150222.34
2023-03-14T11:33:54.902Z,150203.44
2023-03-14T11:36:27.860Z,150217.28
2023-03-14T11:38:57.453Z,150160.53
2023-03-14T11:41:29.685Z,150129.00
2023-03-14T11:43:58.161Z,150127.75
2023-03-14T11:46:30.251Z,150142.88
2023-03-14T11:49:34.692Z,150139.09
2023-03-14T11:52:05.627Z,150137.84
2023-03-14T11:54:35.168Z,150141.63
2023-03-14T11:57:12.222Z,150103.81
2023-03-14T11:59:42.690Z,150095.00
2023-03-14T12:02:30.464Z,150064.72
2023-03-14T12:04:56.448Z,150058.44
2023-03-14T12:07:51.027Z,150166.88
2023-03-14T12:10:16.932Z,150209.72
2023-03-14T12:12:43.122Z,150217.28
2023-03-14T12:15:27.201Z,150171.91
2023-03-14T12:17:55.572Z,150053.38
2023-03-14T12:20:25.813Z,149975.22
2023-03-14T12:22:58.684Z,149985.28
2023-03-14T12:25:27.616Z,149953.81
2023-03-14T12:27:56.567Z,149966.38
2023-03-14T12:30:27.792Z,149965.13
2023-03-14T12:33:09.088Z,149971.47
2023-03-14T12:35:39.529Z,149966.38
2023-03-14T12:38:29.180Z,149996.66
2023-03-14T12:40:59.380Z,149956.34
2023-03-14T12:43:33.582Z,149916.03
2023-03-14T12:46:17.694Z,149895.81
2023-03-14T12:48:47.002Z,149890.78
2023-03-14T12:51:37.048Z,149878.19
2023-03-14T12:54:20.217Z,149869.38
2023-03-14T12:56:59.416Z,149879.47
2023-03-14T12:59:34.473Z,149860.59
2023-03-14T13:02:06.155Z,149812.69
2023-03-14T13:04:39.581Z,149849.22
2023-03-14T13:07:12.171Z,149885.75
2023-03-14T13:09:51.185Z,149832.84
2023-03-14T13:12:23.048Z,149811.44
2023-03-14T13:14:51.948Z,149834.09
2023-03-14T13:17:36.201Z,149845.47
2023-03-14T13:20:12.094Z,149842.94
2023-03-14T13:22:39.028Z,149905.91
2023-03-14T13:25:11.594Z,149975.22
2023-03-14T13:27:38.383Z,150033.19
2023-03-14T13:30:20.055Z,150136.59
2023-03-14T13:32:47.857Z,150251.34
2023-03-14T13:35:28.599Z,150333.41
2023-03-14T13:38:16.063Z,150387.66
2023-03-14T13:40:45.395Z,150310.72
2023-03-14T13:43:13.938Z,150224.88
2023-03-14T13:45:55.675Z,150174.41
2023-03-14T13:48:23.292Z,150077.34
2023-03-14T13:50:55.595Z,150097.50
2023-03-14T13:53:21.579Z,150064.72
2023-03-14T13:55:47.558Z,150045.81
2023-03-14T13:58:21.877Z,149989.09
2023-03-14T14:01:04.125Z,149973.97
2023-03-14T14:03:38.965Z,149912.19
2023-03-14T14:06:25.438Z,149846.72
2023-03-14T14:08:51.547Z,149774.91
2023-03-14T14:11:50.982Z,149748.44
2023-03-14T14:14:30.997Z,149740.91
2023-03-14T14:16:59.832Z,149693.03
2023-03-14T14:19:28.881Z,149735.88
2023-03-14T14:21:54.900Z,149743.41
2023-03-14T14:24:24.429Z,149791.28
2023-03-14T14:26:58.899Z,149861.84
2023-03-14T14:29:34.730Z,149894.56
2023-03-14T14:32:13.875Z,149822.75
2023-03-14T14:34:50.812Z,149803.84
2023-03-14T14:37:43.771Z,149805.13
2023-03-14T14:40:15.616Z,149787.47
2023-03-14T14:42:42.233Z,149892.03
2023-03-14T14:45:15.328Z,149956.34
2023-03-14T14:47:53.428Z,149992.88
2023-03-14T14:50:53.667Z,149946.22
2023-03-14T14:53:24.280Z,149952.56
2023-03-14T14:55:52.000Z,150154.25
2023-03-14T14:58:35.137Z,150246.31
2023-03-14T15:01:24.273Z,150322.03
2023-03-14T15:03:52.983Z,150299.34
2023-03-14T15:06:19.274Z,150287.97
2023-03-14T15:08:47.702Z,150299.34
2023-03-14T15:11:23.012Z,150243.78
2023-03-14T15:13:49.831Z,150229.91
2023-03-14T15:16:21.859Z,150234.94
2023-03-14T15:18:59.625Z,150165.63
2023-03-14T15:21:27.769Z,150100.03
2023-03-14T15:23:54.449Z,150098.78
2023-03-14T15:26:26.982Z,150115.16
2023-03-14T15:28:53.337Z,150092.44
2023-03-14T15:31:21.412Z,150077.34
2023-03-14T15:33:47.857Z,150113.91
2023-03-14T15:36:35.918Z,150108.84
2023-03-14T15:39:03.303Z,150131.56
2023-03-14T15:41:29.460Z,150126.47
2023-03-14T15:43:55.931Z,150093.75
2023-03-14T15:46:22.798Z,150102.53
2023-03-14T15:48:50.361Z,150083.63
2023-03-14T15:51:17.206Z,150045.81
2023-03-14T15:53:43.898Z,150045.81
2023-03-14T15:56:13.583Z,149995.41
2023-03-14T15:58:40.497Z,149975.22
2023-03-14T16:01:11.482Z,149976.50
2023-03-14T16:03:38.924Z,149938.69
2023-03-14T16:06:05.556Z,149966.38
2023-03-14T16:08:31.753Z,149929.84
2023-03-14T16:10:59.747Z,149884.50
2023-03-14T16:13:26.158Z,149884.50
2023-03-14T16:15:59.914Z,149904.66
2023-03-14T16:18:28.617Z,149918.53
2023-03-14T16:20:56.920Z,149899.63
2023-03-14T16:23:23.267Z,149899.63
2023-03-14T16:25:49.377Z,149874.41
2023-03-14T16:28:15.628Z,149860.59
2023-03-14T16:30:41.915Z,149866.88
2023-03-14T16:33:12.188Z,149861.84
2023-03-14T16:35:41.924Z,149856.75
2023-03-14T16:38:08.186Z,149821.50
2023-03-14T16:40:34.244Z,149821.50
2023-03-14T16:43:16.645Z,149813.97
2023-03-14T16:45:42.592Z,149807.69
2023-03-14T16:48:08.446Z,149810.19
2023-03-14T16:50:34.239Z,149803.84
2023-03-14T16:53:01.453Z,149800.09
2023-03-14T16:55:27.507Z,149747.19
2023-03-14T16:57:53.422Z,149732.06
2023-03-14T17:00:19.816Z,149732.06
2023-03-14T17:02:45.697Z,149722.03
2023-03-14T17:05:11.540Z,149719.50
2023-03-14T17:07:37.566Z,149718.25
2023-03-14T17:10:03.566Z,149718.25
2023-03-14T17:12:29.450Z,149727.03
2023-03-14T17:14:57.077Z,149710.66
2023-03-14T17:17:22.877Z,149683.00
2023-03-14T17:19:48.866Z,149672.91
2023-03-14T17:22:23.302Z,149667.88
2023-03-14T17:24:50.836Z,149691.78
2023-03-14T17:27:19.361Z,149651.50
2023-03-14T17:29:46.648Z,149638.91
2023-03-14T17:32:14.406Z,149625.03
2023-03-14T17:34:40.325Z,149659.03
2023-03-14T17:37:06.275Z,149630.13
2023-03-14T17:39:32.142Z,149609.97
2023-03-14T17:41:58.003Z,149607.41
2023-03-14T17:44:23.877Z,149645.19
2023-03-14T17:46:49.850Z,149596.13
2023-03-14T17:49:15.686Z,149603.66
2023-03-14T17:51:43.063Z,149601.13
2023-03-14T17:54:08.987Z,149599.88
2023-03-14T17:56:34.990Z,149591.06
2023-03-14T17:59:02.159Z,149565.91
2023-03-14T18:01:28.172Z,149594.88
2023-03-14T18:03:55.739Z,149569.66
2023-03-14T18:06:23.000Z,149557.09
2023-03-14T18:08:50.020Z,149575.97
2023-03-14T18:11:16.597Z,149587.28
2023-03-14T18:13:43.072Z,149538.22
2023-03-14T18:16:14.572Z,149516.81
2023-03-14T18:18:47.064Z,149536.94
2023-03-14T18:21:15.353Z,149553.28
2023-03-14T18:23:41.320Z,149555.81
2023-03-14T18:26:07.432Z,149550.78
2023-03-14T18:28:33.829Z,149559.63
2023-03-14T18:31:06.694Z,149535.66
2023-03-14T18:33:38.983Z,149564.63
2023-03-14T18:36:06.069Z,149557.09
2023-03-14T18:38:32.088Z,149548.28
2023-03-14T18:41:05.794Z,149553.28
2023-03-14T18:43:33.775Z,149508.00
2023-03-14T18:46:00.571Z,149518.06
2023-03-14T18:48:26.908Z,149503.00
2023-03-14T18:50:52.847Z,149489.16
2023-03-14T18:53:18.714Z,149491.66
2023-03-14T18:55:44.637Z,149515.53
2023-03-14T18:58:10.722Z,149531.91
2023-03-14T19:00:37.385Z,149535.66
2023-03-14T19:03:03.876Z,149525.63
2023-03-14T19:05:30.413Z,149479.06
2023-03-14T19:07:59.120Z,149470.28
2023-03-14T19:10:25.696Z,149487.88
2023-03-14T19:12:51.876Z,149476.53
2023-03-14T19:15:17.796Z,149475.28
2023-03-14T19:17:43.633Z,149479.06
2023-03-14T19:20:10.498Z,149455.16
2023-03-14T19:22:36.683Z,149471.53
2023-03-14T19:25:03.387Z,149500.44
2023-03-14T19:27:29.986Z,149491.66
2023-03-14T19:29:55.781Z,149526.88
2023-03-14T19:32:21.803Z,149499.19
2023-03-14T19:34:47.718Z,149496.66
2023-03-14T19:37:13.633Z,149492.91
2023-03-14T19:39:39.681Z,149481.56
2023-03-14T19:42:05.677Z,149490.41
2023-03-14T19:44:31.763Z,149489.16
2023-03-14T19:46:57.666Z,149475.28
2023-03-14T19:49:23.688Z,149463.94
2023-03-14T19:51:50.072Z,149457.66
2023-03-14T19:54:15.981Z,149479.06
2023-03-14T19:56:41.856Z,149477.78
2023-03-14T19:59:07.994Z,149445.06
2023-03-14T20:01:34.550Z,149421.19
2023-03-14T20:04:03.715Z,149436.28
2023-03-14T20:06:30.676Z,149438.81
2023-03-14T20:08:58.841Z,149431.28
2023-03-14T20:11:24.858Z,149450.16
2023-03-14T20:13:50.690Z,149476.53
2023-03-14T20:16:16.701Z,149466.50
2023-03-14T20:18:42.616Z,149428.72
2023-03-14T20:21:12.067Z,149458.94
2023-03-14T20:23:39.033Z,149472.78
2023-03-14T20:26:04.946Z,149447.59
2023-03-14T20:28:31.203Z,149428.72
2023-03-14T20:30:57.858Z,149455.16
2023-03-14T20:33:24.028Z,149462.69
2023-03-14T20:35:58.664Z,149437.53
2023-03-14T20:38:25.869Z,149414.91
2023-03-14T20:40:52.745Z,149413.66
2023-03-14T20:43:18.573Z,149423.69
2023-03-14T20:45:51.277Z,149414.91
2023-03-14T20:48:17.187Z,149418.69
2023-03-14T20:50:45.733Z,149408.59
2023-03-14T20:53:11.612Z,149394.75
2023-03-14T20:55:37.476Z,149365.84
2023-03-14T20:58:03.837Z,149367.09
2023-03-14T21:00:30.222Z,149404.84
2023-03-14T21:02:55.997Z,149368.34
2023-03-14T21:05:23.556Z,149354.50
2023-03-14T21:07:49.549Z,149339.41
2023-03-14T21:10:15.871Z,149338.16
2023-03-14T21:12:41.910Z,149315.53
2023-03-14T21:15:08.924Z,149339.41
2023-03-14T21:17:34.993Z,149338.16
2023-03-14T21:20:00.832Z,149315.53
2023-03-14T21:22:28.805Z,149324.34
2023-03-14T21:24:57.707Z,149295.41
2023-03-14T21:27:23.622Z,149304.19
2023-03-14T21:29:49.522Z,149265.22
2023-03-14T21:32:15.428Z,149243.84
2023-03-14T21:34:41.304Z,149265.22
2023-03-14T21:37:07.102Z,149250.13
2023-03-14T21:39:32.905Z,149262.69
2023-03-14T21:41:58.705Z,149279.06
2023-03-14T21:44:24.652Z,149233.78
2023-03-14T21:46:50.680Z,149272.78
2023-03-14T21:49:17.217Z,149251.38
2023-03-14T21:51:46.740Z,149255.19
2023-03-14T21:54:14.774Z,149228.75
2023-03-14T21:56:41.756Z,149211.16
2023-03-14T21:59:08.393Z,149193.56
2023-03-14T22:01:34.530Z,149223.75
2023-03-14T22:04:00.615Z,149219.97
2023-03-14T22:06:28.041Z,149223.75
2023-03-14T22:08:56.759Z,149250.13
2023-03-14T22:11:24.067Z,149255.19
2023-03-14T22:13:50.407Z,149207.38
2023-03-14T22:16:16.370Z,149240.09
2023-03-14T22:18:42.226Z,149255.19
2023-03-14T22:21:08.096Z,149237.56
2023-03-14T22:23:33.977Z,149193.56
2023-03-14T22:25:59.790Z,149177.19
2023-03-14T22:28:25.721Z,149162.13
2023-03-14T22:30:51.867Z,149169.69
2023-03-14T22:33:18.619Z,149150.84
2023-03-14T22:35:49.843Z,149106.81
2023-03-14T22:38:15.881Z,149154.59
2023-03-14T22:40:42.947Z,149162.13
2023-03-14T22:43:09.100Z,149135.75
2023-03-14T22:45:34.995Z,149123.16
2023-03-14T22:48:00.963Z,149101.81
2023-03-14T22:50:27.169Z,149080.44
2023-03-14T22:52:53.580Z,149089.22
2023-03-14T22:55:19.586Z,149094.28
2023-03-14T22:57:45.757Z,149039.00
2023-03-14T23:00:13.177Z,149050.28
2023-03-14T23:02:40.062Z,149065.34
2023-03-14T23:05:06.285Z,149076.69
2023-03-14T23:07:32.046Z,149116.88
2023-03-14T23:09:57.822Z,149114.38
2023-03-14T23:12:23.631Z,149105.56
2023-03-14T23:14:49.360Z,149133.22
2023-03-14T23:17:15.217Z,149105.56
2023-03-14T23:19:41.126Z,149098.03
2023-03-14T23:22:08.955Z,149106.81
2023-03-14T23:24:35.504Z,149109.38
2023-03-14T23:27:01.355Z,149124.41
2023-03-14T23:29:27.247Z,149155.84
2023-03-14T23:31:53.142Z,149105.56
2023-03-14T23:34:19.104Z,149095.53
2023-03-14T23:36:45.278Z,149126.97
2023-03-14T23:39:11.246Z,149105.56
2023-03-14T23:41:37.104Z,149116.88
2023-03-14T23:44:03.561Z,149080.44
2023-03-14T23:46:30.725Z,149082.94
2023-03-14T23:48:57.530Z,149091.78
2023-03-14T23:51:23.740Z,149070.38
2023-03-14T23:53:49.724Z,149091.78
2023-03-14T23:56:16.465Z,149071.63
2023-03-14T23:58:42.500Z,149086.72
